createdAt,value
2023-04-18T00:02:23.365Z,1.60
2023-04-18T00:04:52.007Z,1.77
2023-04-18T00:07:20.113Z,1.80
2023-04-18T00:09:48.078Z,1.87
2023-04-18T00:12:16.322Z,1.60
2023-04-18T00:14:44.401Z,1.40
2023-04-18T00:17:13.538Z,1.62
2023-04-18T00:19:43.467Z,1.80
2023-04-18T00:22:22.574Z,1.95
2023-04-18T00:24:51.606Z,1.52
2023-04-18T00:27:20.522Z,1.62
2023-04-18T00:29:48.759Z,1.58
2023-04-18T00:32:17.749Z,2.23
2023-04-18T00:34:45.616Z,2.00
2023-04-18T00:37:13.356Z,1.75
2023-04-18T00:39:43.046Z,2.12
2023-04-18T00:42:10.838Z,1.80
2023-04-18T00:44:38.701Z,2.13
2023-04-18T00:47:07.020Z,2.90
2023-04-18T00:49:34.997Z,2.40
2023-04-18T00:52:02.883Z,1.87
2023-04-18T00:54:30.959Z,1.98
2023-04-18T00:56:58.909Z,1.70
2023-04-18T00:59:27.094Z,2.00
2023-04-18T01:01:55.901Z,2.20
2023-04-18T01:04:23.938Z,1.90
2023-04-18T01:06:51.986Z,2.28
2023-04-18T01:09:20.280Z,1.90
2023-04-18T01:11:48.258Z,2.10
2023-04-18T01:14:19.803Z,2.20
2023-04-18T01:16:48.612Z,2.03
2023-04-18T01:19:19.122Z,2.37
2023-04-18T01:21:48.121Z,1.70
2023-04-18T01:24:17.292Z,1.67
2023-04-18T01:26:47.735Z,2.00
2023-04-18T01:29:16.033Z,2.30
2023-04-18T01:31:44.170Z,2.00
2023-04-18T01:34:12.482Z,2.30
2023-04-18T01:36:42.496Z,2.30
2023-04-18T01:39:12.375Z,2.40
2023-04-18T01:41:42.311Z,2.28
2023-04-18T01:44:10.677Z,2.47
2023-04-18T01:46:39.043Z,2.00
2023-04-18T01:49:08.881Z,2.33
2023-04-18T01:51:38.962Z,2.65
2023-04-18T01:54:07.363Z,2.50
2023-04-18T01:56:35.613Z,2.33
2023-04-18T01:59:04.120Z,2.43
2023-04-18T02:01:32.385Z,2.37
2023-04-18T02:04:00.666Z,2.20
2023-04-18T02:06:28.873Z,2.22
2023-04-18T02:08:56.862Z,2.60
2023-04-18T02:11:26.583Z,2.47
2023-04-18T02:13:54.764Z,2.75
2023-04-18T02:16:23.340Z,2.80
2023-04-18T02:18:52.640Z,2.60
2023-04-18T02:21:22.044Z,2.83
2023-04-18T02:23:51.113Z,2.30
2023-04-18T02:26:22.830Z,2.53
2023-04-18T02:28:51.186Z,2.78
2023-04-18T02:31:19.290Z,2.70
2023-04-18T02:33:48.175Z,2.40
2023-04-18T02:36:16.470Z,2.53
2023-04-18T02:38:45.284Z,2.42
2023-04-18T02:41:17.593Z,2.37
2023-04-18T02:43:46.330Z,2.67
2023-04-18T02:46:15.394Z,2.60
2023-04-18T02:48:43.886Z,2.90
2023-04-18T02:51:13.283Z,2.83
2023-04-18T02:53:41.656Z,2.35
2023-04-18T02:56:09.908Z,2.50
2023-04-18T02:58:43.739Z,3.03
2023-04-18T03:01:13.238Z,2.77
2023-04-18T03:03:42.715Z,2.80
2023-04-18T03:06:12.773Z,2.83
2023-04-18T03:08:41.483Z,3.10
2023-04-18T03:11:10.426Z,2.90
2023-04-18T03:13:42.299Z,2.20
2023-04-18T03:16:11.612Z,3.03
2023-04-18T03:18:40.025Z,2.60
2023-04-18T03:21:08.792Z,3.03
2023-04-18T03:23:38.004Z,2.75
2023-04-18T03:26:07.164Z,2.80
2023-04-18T03:28:36.339Z,2.97
2023-04-18T03:31:05.165Z,2.87
2023-04-18T03:33:34.333Z,2.78
2023-04-18T03:36:03.822Z,3.03
2023-04-18T03:38:32.068Z,3.17
2023-04-18T03:41:00.512Z,3.40
2023-04-18T03:43:28.876Z,2.80
2023-04-18T03:45:57.034Z,2.95
2023-04-18T03:48:25.762Z,3.25
2023-04-18T03:50:54.946Z,2.97
2023-04-18T03:53:23.290Z,3.03
2023-04-18T03:55:51.277Z,3.20
2023-04-18T03:58:23.816Z,3.33
2023-04-18T04:00:52.716Z,3.35
2023-04-18T04:03:48.477Z,3.53
2023-04-18T04:06:17.753Z,3.70
2023-04-18T04:08:45.778Z,3.20
2023-04-18T04:11:14.160Z,2.97
2023-04-18T04:13:41.861Z,3.70
2023-04-18T04:16:10.423Z,4.17
2023-04-18T04:18:38.269Z,3.33
2023-04-18T04:21:06.770Z,3.25
2023-04-18T04:23:35.161Z,3.55
2023-04-18T04:26:05.280Z,3.72
2023-04-18T04:28:33.528Z,3.80
2023-04-18T04:31:03.334Z,3.50
2023-04-18T04:33:33.333Z,3.53
2023-04-18T04:36:01.451Z,3.25
2023-04-18T04:38:31.219Z,3.40
2023-04-18T04:40:59.331Z,3.30
2023-04-18T04:43:28.746Z,3.55
2023-04-18T04:45:57.681Z,4.00
2023-04-18T04:48:25.790Z,3.78
2023-04-18T04:50:58.363Z,4.20
2023-04-18T04:53:28.434Z,4.10
2023-04-18T04:55:57.374Z,4.12
2023-04-18T04:58:25.159Z,4.60
2023-04-18T05:00:53.801Z,4.78
2023-04-18T05:03:22.159Z,4.40
2023-04-18T05:05:49.815Z,4.23
2023-04-18T05:08:17.429Z,3.72
2023-04-18T05:10:46.011Z,4.78
2023-04-18T05:13:13.518Z,3.78
2023-04-18T05:15:40.997Z,3.97
2023-04-18T05:18:08.999Z,4.20
2023-04-18T05:20:36.639Z,4.00
2023-04-18T05:23:04.596Z,4.10
2023-04-18T05:25:33.617Z,3.65
2023-04-18T05:28:01.424Z,3.92
2023-04-18T05:30:29.169Z,3.93
2023-04-18T05:32:57.007Z,4.47
2023-04-18T05:35:24.557Z,3.95
2023-04-18T05:37:52.448Z,4.25
2023-04-18T05:40:20.390Z,4.20
2023-04-18T05:42:47.937Z,4.03
2023-04-18T05:45:15.759Z,4.45
2023-04-18T05:47:43.614Z,4.55
2023-04-18T05:50:11.382Z,4.18
2023-04-18T05:52:39.122Z,3.97
2023-04-18T05:55:07.421Z,4.03
2023-04-18T05:57:34.928Z,4.25
2023-04-18T06:00:02.703Z,3.78
2023-04-18T06:02:40.011Z,3.87
2023-04-18T06:05:08.667Z,4.28
2023-04-18T06:07:36.480Z,4.90
2023-04-18T06:10:07.721Z,4.20
2023-04-18T06:12:35.672Z,4.20
2023-04-18T06:15:03.884Z,3.72
2023-04-18T06:17:31.431Z,4.00
2023-04-18T06:19:59.260Z,3.90
2023-04-18T06:22:26.792Z,3.30
2023-04-18T06:24:55.772Z,3.40
2023-04-18T06:27:31.192Z,3.40
2023-04-18T06:29:59.525Z,3.10
2023-04-18T06:32:27.576Z,2.77
2023-04-18T06:34:55.461Z,3.03
2023-04-18T06:37:23.608Z,2.90
2023-04-18T06:39:51.552Z,3.00
2023-04-18T06:42:22.087Z,2.47
2023-04-18T06:44:50.570Z,2.43
2023-04-18T06:47:18.631Z,2.70
2023-04-18T06:49:46.549Z,2.80
2023-04-18T06:52:14.215Z,2.60
2023-04-18T06:54:42.151Z,2.70
2023-04-18T06:57:09.671Z,2.73
2023-04-18T06:59:37.583Z,2.47
2023-04-18T07:02:05.583Z,3.00
2023-04-18T07:04:33.152Z,2.30
2023-04-18T07:07:02.002Z,2.78
2023-04-18T07:09:29.794Z,2.53
2023-04-18T07:11:57.455Z,2.40
2023-04-18T07:14:25.254Z,2.22
2023-04-18T07:16:53.203Z,2.33
2023-04-18T07:19:21.093Z,1.65
2023-04-18T07:21:48.631Z,2.10
2023-04-18T07:24:16.627Z,1.65
2023-04-18T07:26:44.294Z,1.62
2023-04-18T07:29:11.774Z,1.73
2023-04-18T07:31:39.622Z,1.80
2023-04-18T07:34:07.198Z,1.70
2023-04-18T07:36:34.917Z,1.33
2023-04-18T07:39:02.772Z,1.52
2023-04-18T07:41:30.927Z,1.40
2023-04-18T07:43:58.420Z,1.50
2023-04-18T07:46:26.481Z,1.23
2023-04-18T07:48:54.218Z,1.33
2023-04-18T07:51:22.154Z,1.20
2023-04-18T07:53:49.976Z,1.30
2023-04-18T07:56:17.511Z,1.20
2023-04-18T07:58:45.565Z,1.30
2023-04-18T08:01:15.258Z,1.27
2023-04-18T08:03:43.607Z,0.90
2023-04-18T08:06:11.265Z,0.95
2023-04-18T08:08:38.797Z,1.15
2023-04-18T08:11:06.912Z,1.50
2023-04-18T08:13:34.533Z,1.00
2023-04-18T08:16:02.944Z,1.20
2023-04-18T08:18:30.789Z,1.10
2023-04-18T08:20:58.332Z,1.00
2023-04-18T08:23:26.051Z,1.23
2023-04-18T08:25:53.805Z,1.23
2023-04-18T08:28:21.759Z,1.20
2023-04-18T08:30:50.411Z,0.90
2023-04-18T08:33:19.069Z,1.33
2023-04-18T08:35:46.747Z,1.00
2023-04-18T08:38:14.751Z,0.88
2023-04-18T08:40:43.600Z,1.23
2023-04-18T08:43:14.193Z,0.90
2023-04-18T08:45:42.918Z,1.00
2023-04-18T08:48:14.801Z,0.70
2023-04-18T08:50:42.789Z,0.88
2023-04-18T08:53:11.027Z,1.00
2023-04-18T08:55:38.795Z,0.80
2023-04-18T08:58:07.021Z,0.90
2023-04-18T09:00:35.292Z,0.77
2023-04-18T09:03:04.032Z,0.68
2023-04-18T09:05:32.301Z,0.80
2023-04-18T09:08:01.975Z,0.75
2023-04-18T09:10:32.562Z,0.85
2023-04-18T09:13:03.585Z,0.60
2023-04-18T09:15:31.698Z,0.75
2023-04-18T09:18:02.412Z,0.95
2023-04-18T09:20:36.045Z,0.80
2023-04-18T09:23:06.011Z,0.73
2023-04-18T09:25:41.969Z,0.80
2023-04-18T09:28:28.778Z,0.93
2023-04-18T09:30:58.501Z,0.80
2023-04-18T09:33:33.016Z,0.80
2023-04-18T09:36:23.449Z,1.00
2023-04-18T09:38:55.324Z,0.80
2023-04-18T09:41:24.636Z,0.70
2023-04-18T09:44:11.634Z,1.27
2023-04-18T09:46:42.948Z,1.27
2023-04-18T09:49:12.708Z,1.15
2023-04-18T09:51:42.111Z,0.90
2023-04-18T09:54:11.394Z,1.20
2023-04-18T09:56:40.573Z,1.20
2023-04-18T09:59:09.384Z,1.67
2023-04-18T10:01:38.077Z,1.10
2023-04-18T10:04:09.093Z,1.03
2023-04-18T10:06:41.997Z,0.82
2023-04-18T10:09:10.267Z,1.23
2023-04-18T10:11:38.169Z,1.00
2023-04-18T10:14:11.819Z,1.37
2023-04-18T10:16:39.927Z,1.40
2023-04-18T10:19:28.170Z,1.50
2023-04-18T10:21:58.284Z,1.20
2023-04-18T10:24:56.261Z,1.10
2023-04-18T10:27:48.778Z,1.73
2023-04-18T10:30:17.064Z,1.10
2023-04-18T10:32:48.136Z,1.10
2023-04-18T10:35:15.653Z,1.20
2023-04-18T10:37:52.750Z,0.88
2023-04-18T10:40:40.787Z,1.42
2023-04-18T10:43:08.736Z,1.70
2023-04-18T10:45:36.768Z,0.98
2023-04-18T10:48:24.099Z,1.37
2023-04-18T10:51:14.235Z,1.52
2023-04-18T10:53:57.014Z,1.20
2023-04-18T10:56:26.130Z,1.20
2023-04-18T10:58:53.988Z,1.20
2023-04-18T11:01:32.713Z,1.20
2023-04-18T11:04:01.407Z,1.10
2023-04-18T11:06:30.363Z,1.10
2023-04-18T11:09:11.652Z,1.33
2023-04-18T11:11:40.091Z,1.23
2023-04-18T11:14:08.827Z,1.17
2023-04-18T11:16:36.701Z,0.93
2023-04-18T11:19:21.586Z,1.10
2023-04-18T11:21:49.434Z,0.93
2023-04-18T11:24:23.139Z,0.80
2023-04-18T11:26:53.619Z,1.08
2023-04-18T11:29:21.452Z,1.00
2023-04-18T11:31:56.028Z,1.17
2023-04-18T11:34:30.551Z,0.90
2023-04-18T11:36:58.190Z,1.30
2023-04-18T11:43:01.225Z,0.80
2023-04-18T11:45:29.293Z,1.02
2023-04-18T11:47:58.433Z,1.17
2023-04-18T11:50:26.283Z,0.80
2023-04-18T11:52:54.711Z,1.12
2023-04-18T11:55:25.008Z,0.90
2023-04-18T11:57:53.696Z,1.23
2023-04-18T12:00:38.413Z,1.10
2023-04-18T12:03:11.738Z,1.02
2023-04-18T12:05:41.014Z,0.73
2023-04-18T12:08:14.203Z,1.20
2023-04-18T12:10:50.700Z,0.93
2023-04-18T12:13:19.578Z,0.90
2023-04-18T12:15:47.211Z,1.15
2023-04-18T12:18:18.175Z,0.85
2023-04-18T12:20:50.578Z,1.00
2023-04-18T12:23:39.052Z,0.98
2023-04-18T12:26:08.510Z,0.80
2023-04-18T12:28:35.930Z,0.90
2023-04-18T12:31:07.525Z,0.95
2023-04-18T12:33:36.734Z,1.05
2023-04-18T12:36:08.601Z,1.20
2023-04-18T12:38:36.580Z,0.97
2023-04-18T12:41:04.251Z,1.27
2023-04-18T12:43:31.796Z,1.33
2023-04-18T12:45:59.976Z,0.95
2023-04-18T12:48:28.060Z,1.00
2023-04-18T12:50:55.768Z,0.73
2023-04-18T12:53:23.850Z,0.98
2023-04-18T12:55:51.742Z,0.85
2023-04-18T12:58:20.553Z,0.80
2023-04-18T13:00:48.589Z,1.05
2023-04-18T13:03:16.466Z,0.80
2023-04-18T13:05:44.461Z,0.80
2023-04-18T13:08:17.209Z,0.93
2023-04-18T13:10:47.484Z,0.70
2023-04-18T13:13:15.515Z,0.90
2023-04-18T13:15:43.289Z,0.90
2023-04-18T13:18:10.888Z,1.12
2023-04-18T13:20:38.729Z,0.90
2023-04-18T13:23:06.437Z,0.90
2023-04-18T13:25:33.900Z,0.80
2023-04-18T13:28:02.060Z,1.13
2023-04-18T13:30:30.061Z,1.02
2023-04-18T13:32:57.940Z,1.00
2023-04-18T13:35:25.908Z,0.90
2023-04-18T13:37:57.200Z,1.30
2023-04-18T13:40:25.290Z,0.73
2023-04-18T13:42:53.200Z,0.70
2023-04-18T13:45:20.745Z,1.00
2023-04-18T13:47:48.273Z,0.98
2023-04-18T13:50:16.187Z,1.02
2023-04-18T13:52:43.694Z,0.73
2023-04-18T13:55:11.181Z,0.90
2023-04-18T13:57:39.294Z,0.90
2023-04-18T14:00:08.798Z,0.68
2023-04-18T14:02:39.617Z,0.88
2023-04-18T14:05:08.012Z,0.90
2023-04-18T14:07:36.310Z,0.88
2023-04-18T14:10:04.297Z,0.82
2023-04-18T14:12:32.758Z,0.90
2023-04-18T14:15:00.465Z,0.90
2023-04-18T14:17:27.991Z,0.60
2023-04-18T14:19:55.977Z,0.88
2023-04-18T14:22:23.560Z,1.25
2023-04-18T14:24:54.378Z,0.90
2023-04-18T14:27:22.189Z,1.02
2023-04-18T14:29:49.974Z,1.03
2023-04-18T14:32:17.703Z,0.88
2023-04-18T14:34:45.570Z,0.95
2023-04-18T14:37:13.850Z,0.93
2023-04-18T14:39:42.518Z,0.73
2023-04-18T14:42:10.362Z,1.53
2023-04-18T14:44:37.854Z,0.90
2023-04-18T14:47:05.680Z,1.00
2023-04-18T14:49:33.914Z,0.80
2023-04-18T14:52:01.844Z,0.88
2023-04-18T14:54:31.601Z,1.13
2023-04-18T14:57:01.186Z,0.98
2023-04-18T14:59:28.927Z,0.90
2023-04-18T15:01:56.563Z,0.80
2023-04-18T15:04:24.863Z,0.80
2023-04-18T15:06:52.460Z,0.93
2023-04-18T15:09:20.075Z,0.80
2023-04-18T15:11:47.880Z,0.98
2023-04-18T15:14:15.893Z,0.88
2023-04-18T15:16:43.790Z,0.90
2023-04-18T15:19:11.804Z,0.60
2023-04-18T15:21:39.289Z,0.90
2023-04-18T15:24:08.042Z,1.10
2023-04-18T15:26:36.237Z,0.70
2023-04-18T15:29:04.622Z,1.20
2023-04-18T15:31:32.470Z,0.80
2023-04-18T15:34:00.776Z,1.20
2023-04-18T15:36:28.779Z,1.10
2023-04-18T15:38:56.338Z,0.93
2023-04-18T15:41:24.167Z,1.20
2023-04-18T15:43:52.786Z,0.80
2023-04-18T15:46:20.382Z,0.88
2023-04-18T15:48:48.532Z,1.20
2023-04-18T15:51:16.120Z,0.95
2023-04-18T15:53:43.644Z,1.25
2023-04-18T15:56:11.510Z,1.30
2023-04-18T15:58:39.302Z,0.90
2023-04-18T16:01:07.742Z,1.20
2023-04-18T16:03:36.157Z,1.00
2023-04-18T16:06:04.612Z,1.00
2023-04-18T16:08:33.408Z,1.10
2023-04-18T16:11:01.465Z,0.98
2023-04-18T16:13:29.482Z,1.20
2023-04-18T16:15:57.124Z,1.30
2023-04-18T16:18:24.993Z,1.55
2023-04-18T16:20:52.631Z,1.30
2023-04-18T16:23:20.549Z,0.95
2023-04-18T16:25:48.713Z,1.40
2023-04-18T16:28:16.297Z,1.35
2023-04-18T16:30:45.658Z,1.27
2023-04-18T16:33:13.555Z,1.07
2023-04-18T16:35:41.284Z,1.85
2023-04-18T16:38:08.753Z,1.00
2023-04-18T16:40:36.666Z,1.10
2023-04-18T16:43:04.118Z,1.17
2023-04-18T16:45:32.841Z,1.10
2023-04-18T16:48:00.781Z,0.98
2023-04-18T16:50:31.409Z,1.12
2023-04-18T16:52:59.016Z,1.20
2023-04-18T16:55:26.803Z,1.87
2023-04-18T16:57:54.598Z,1.07
2023-04-18T17:00:22.350Z,1.00
2023-04-18T17:02:50.895Z,1.40
2023-04-18T17:05:18.981Z,0.95
2023-04-18T17:07:49.745Z,1.10
2023-04-18T17:10:20.705Z,0.87
2023-04-18T17:12:49.350Z,1.30
2023-04-18T17:15:21.196Z,1.20
2023-04-18T17:17:48.845Z,1.33
2023-04-18T17:20:17.823Z,1.10
2023-04-18T17:22:45.806Z,1.30
2023-04-18T17:25:13.436Z,1.35
2023-04-18T17:27:41.411Z,1.20
2023-04-18T17:30:09.747Z,1.12
2023-04-18T17:32:42.809Z,1.40
2023-04-18T17:35:14.544Z,1.00
2023-04-18T17:37:42.751Z,1.40
2023-04-18T17:40:11.690Z,1.20
2023-04-18T17:42:39.827Z,0.73
2023-04-18T17:45:08.890Z,1.35
2023-04-18T17:47:36.685Z,1.40
2023-04-18T17:50:05.198Z,1.15
2023-04-18T17:52:33.113Z,1.27
2023-04-18T17:55:04.014Z,1.30
2023-04-18T17:57:33.592Z,1.23
2023-04-18T18:00:01.599Z,1.40
2023-04-18T18:02:41.750Z,1.40
2023-04-18T18:05:13.800Z,1.62
2023-04-18T18:07:45.865Z,1.42
2023-04-18T18:10:18.990Z,1.70
2023-04-18T18:12:46.676Z,1.33
2023-04-18T18:15:16.675Z,1.70
2023-04-18T18:17:44.670Z,1.55
2023-04-18T18:20:12.504Z,2.08
2023-04-18T18:22:42.737Z,1.25
2023-04-18T18:25:10.735Z,1.60
2023-04-18T18:27:38.473Z,1.62
2023-04-18T18:30:07.469Z,1.73
2023-04-18T18:32:35.166Z,2.08
2023-04-18T18:35:02.721Z,1.95
2023-04-18T18:37:30.675Z,1.87
2023-04-18T18:39:59.189Z,1.95
2023-04-18T18:42:26.872Z,2.50
2023-04-18T18:44:54.688Z,1.80
2023-04-18T18:47:22.181Z,2.35
2023-04-18T18:49:49.902Z,2.13
2023-04-18T18:52:17.687Z,2.53
2023-04-18T18:54:45.337Z,2.10
2023-04-18T18:57:12.952Z,1.73
2023-04-18T18:59:41.562Z,2.12
2023-04-18T19:02:09.165Z,1.80
2023-04-18T19:04:36.906Z,2.10
2023-04-18T19:07:05.926Z,2.33
2023-04-18T19:09:33.731Z,2.15
2023-04-18T19:12:01.508Z,1.98
2023-04-18T19:14:29.384Z,1.87
2023-04-18T19:16:58.026Z,1.90
2023-04-18T19:19:25.709Z,1.40
2023-04-18T19:21:53.783Z,1.50
2023-04-18T19:24:21.440Z,1.52
2023-04-18T19:26:48.960Z,1.80
2023-04-18T19:29:18.117Z,1.62
2023-04-18T19:31:45.750Z,1.70
2023-04-18T19:34:13.570Z,2.05
2023-04-18T19:36:41.460Z,2.00
2023-04-18T19:39:09.546Z,1.80
2023-04-18T19:41:37.197Z,2.05
2023-04-18T19:44:05.448Z,2.08
2023-04-18T19:46:33.149Z,1.95
2023-04-18T19:49:00.726Z,2.12
2023-04-18T19:51:28.697Z,1.93
2023-04-18T19:53:56.810Z,1.62
2023-04-18T19:56:24.477Z,1.73
2023-04-18T19:58:52.543Z,1.77
2023-04-18T20:01:20.924Z,1.90
2023-04-18T20:03:49.406Z,1.83
2023-04-18T20:06:17.866Z,1.83
2023-04-18T20:08:46.116Z,2.17
2023-04-18T20:11:14.345Z,1.90
2023-04-18T20:13:42.572Z,1.98
2023-04-18T20:16:11.304Z,1.80
2023-04-18T20:18:41.532Z,1.92
2023-04-18T20:21:10.289Z,1.85
2023-04-18T20:23:38.049Z,1.45
2023-04-18T20:26:16.016Z,2.10
2023-04-18T20:28:43.529Z,1.67
2023-04-18T20:31:12.017Z,2.00
2023-04-18T20:33:40.328Z,2.10
2023-04-18T20:36:08.243Z,1.80
2023-04-18T20:38:36.956Z,2.20
2023-04-18T20:41:05.223Z,1.50
2023-04-18T20:43:37.328Z,1.92
2023-04-18T20:46:05.225Z,1.75
2023-04-18T20:48:33.003Z,1.75
2023-04-18T20:51:00.775Z,1.98
2023-04-18T20:53:29.134Z,1.80
2023-04-18T20:55:56.747Z,1.77
2023-04-18T20:58:24.534Z,2.35
2023-04-18T21:00:52.525Z,1.98
2023-04-18T21:03:20.479Z,2.28
2023-04-18T21:05:48.195Z,2.00
2023-04-18T21:08:16.102Z,2.10
2023-04-18T21:10:43.905Z,1.90
2023-04-18T21:13:12.601Z,2.00
2023-04-18T21:15:42.059Z,1.70
2023-04-18T21:18:09.648Z,1.87
2023-04-18T21:20:37.255Z,1.65
2023-04-18T21:23:05.315Z,1.87
2023-04-18T21:25:32.840Z,2.00
2023-04-18T21:28:01.130Z,1.92
2023-04-18T21:30:28.987Z,1.67
2023-04-18T21:32:56.683Z,2.22
2023-04-18T21:35:24.894Z,1.92
2023-04-18T21:37:53.084Z,1.73
2023-04-18T21:40:20.615Z,1.52
2023-04-18T21:42:51.004Z,1.60
2023-04-18T21:45:18.765Z,1.80
2023-04-18T21:47:46.905Z,1.90
2023-04-18T21:50:14.731Z,1.80
2023-04-18T21:52:42.690Z,1.90
2023-04-18T21:55:10.535Z,2.03
2023-04-18T21:57:38.123Z,1.80
2023-04-18T22:00:09.255Z,1.65
2023-04-18T22:02:38.191Z,1.70
2023-04-18T22:05:08.834Z,2.00
2023-04-18T22:07:50.040Z,1.80
2023-04-18T22:10:22.835Z,2.03
2023-04-18T22:12:54.118Z,2.20
2023-04-18T22:15:22.283Z,1.67
2023-04-18T22:17:50.469Z,1.85
2023-04-18T22:20:18.531Z,1.87
2023-04-18T22:22:46.538Z,1.73
2023-04-18T22:25:14.128Z,1.83
2023-04-18T22:27:42.982Z,2.35
2023-04-18T22:30:11.482Z,1.90
2023-04-18T22:32:39.664Z,1.80
2023-04-18T22:35:07.882Z,2.15
2023-04-18T22:37:35.796Z,2.12
2023-04-18T22:40:05.187Z,2.03
2023-04-18T22:42:39.501Z,2.47
2023-04-18T22:45:07.900Z,1.63
2023-04-18T22:47:35.559Z,1.70
2023-04-18T22:50:03.270Z,2.08
2023-04-18T22:52:31.174Z,1.85
2023-04-18T22:54:58.677Z,1.90
2023-04-18T22:57:26.504Z,2.03
2023-04-18T22:59:54.339Z,1.77
2023-04-18T23:02:21.862Z,2.15
2023-04-18T23:04:50.619Z,1.92
2023-04-18T23:07:18.801Z,2.08
2023-04-18T23:09:46.525Z,2.00
2023-04-18T23:12:14.390Z,1.90
2023-04-18T23:14:42.265Z,1.83
2023-04-18T23:17:09.808Z,1.80
2023-04-18T23:19:37.590Z,2.10
2023-04-18T23:22:05.676Z,1.80
2023-04-18T23:24:33.218Z,1.70
2023-04-18T23:27:01.511Z,1.45
2023-04-18T23:29:29.461Z,1.85
2023-04-18T23:31:57.029Z,1.95
2023-04-18T23:34:24.635Z,2.00
2023-04-18T23:36:52.406Z,1.87
2023-04-18T23:39:21.525Z,2.47
2023-04-18T23:41:48.973Z,1.87
2023-04-18T23:44:16.894Z,2.00
2023-04-18T23:46:44.551Z,1.87
2023-04-18T23:49:12.096Z,2.15
2023-04-18T23:51:40.614Z,2.05
2023-04-18T23:54:08.133Z,2.03
2023-04-18T23:56:35.770Z,1.80
2023-04-18T23:59:03.902Z,2.15
